Main page
METAR-TAF:

METAR-TAF

Airports :

Portorož, Slovenia

Portorož Airport

latitude: 45-31N, longitude: 013-34E, elevation: 95 m

Current weather observation

The report was made 33 minutes ago, at 22:00 UTC
Wind 6 kt from the East/Southeast
Temperature 17°C
Humidity 82%
Pressure 1017 hPa
Visibility 10 km or more

METAR: LJPZ 232200Z AUTO 12006KT 9999 NSC 17/14 Q1017

Time: 00:33 (22:33 UTC)

Forecast

The report was made 2 hours and 33 minutes ago, at 20:00 UTC
Forecast valid from 23 at 21 UTC to 24 at 06 UTC
Wind 7 kt from the East/Southeast
Visibility 10 km or more
no clouds below 1500 m and no cumulonimbus
Temporary
from 23 at 23 UTC to 24 at 06 UTC
Scattered clouds at a height of 8000 ft

TAF: LJPZ 232000Z 2321/2406 12007KT CAVOK TEMPO 2323/2406 SCT080

Weather observations and forecasts of more than 4000 airports (METAR and TAF reports).

The available stations are represented by yellow and red dots on the map.

Hover mouse over dot to see the name of the station.

Then click to see weather observations and forecasts.

To change the map : click on the green buttons with a black cross to zoom in, on the green button with a dash to zoom out, or on the green arrows for adjacent maps.


METAR-TAF: